sensor_id;sensor_type;location;lat;lon;timestamp;temperature;humidity
14277;DHT22;7222;57.346;12.150;2022-09-03T00:01:05;9.90;99.90
14277;DHT22;7222;57.346;12.150;2022-09-03T00:03:38;9.90;99.90
14277;DHT22;7222;57.346;12.150;2022-09-03T00:06:11;9.80;99.90
14277;DHT22;7222;57.346;12.150;2022-09-03T00:08:44;9.90;99.90
14277;DHT22;7222;57.346;12.150;2022-09-03T00:11:17;9.80;99.90
14277;DHT22;7222;57.346;12.150;2022-09-03T00:13:50;9.70;99.90
14277;DHT22;7222;57.346;12.150;2022-09-03T00:16:20;9.80;99.90
14277;DHT22;7222;57.346;12.150;2022-09-03T00:18:51;9.80;99.90
14277;DHT22;7222;57.346;12.150;2022-09-03T00:21:27;9.80;99.90
14277;DHT22;7222;57.346;12.150;2022-09-03T00:23:59;9.60;99.90
14277;DHT22;7222;57.346;12.150;2022-09-03T00:26:32;9.70;99.90
14277;DHT22;7222;57.346;12.150;2022-09-03T00:29:04;9.60;99.90
14277;DHT22;7222;57.346;12.150;2022-09-03T00:31:34;9.60;99.90
14277;DHT22;7222;57.346;12.150;2022-09-03T00:34:06;9.50;99.90
14277;DHT22;7222;57.346;12.150;2022-09-03T00:36:38;9.40;99.90
14277;DHT22;7222;57.346;12.150;2022-09-03T00:39:09;9.50;99.90
14277;DHT22;7222;57.346;12.150;2022-09-03T00:41:47;9.50;99.90
14277;DHT22;7222;57.346;12.150;2022-09-03T00:44:32;9.40;99.90
14277;DHT22;7222;57.346;12.150;2022-09-03T00:47:09;9.40;99.90
14277;DHT22;7222;57.346;12.150;2022-09-03T00:49:45;9.50;99.90
14277;DHT22;7222;57.346;12.150;2022-09-03T00:52:28;9.40;99.90
14277;DHT22;7222;57.346;12.150;2022-09-03T00:55:04;9.40;99.90
14277;DHT22;7222;57.346;12.150;2022-09-03T00:57:45;9.40;99.90
14277;DHT22;7222;57.346;12.150;2022-09-03T01:00:16;9.50;99.90
14277;DHT22;7222;57.346;12.150;2022-09-03T01:02:55;9.30;99.90
14277;DHT22;7222;57.346;12.150;2022-09-03T01:05:41;9.40;99.90
14277;DHT22;7222;57.346;12.150;2022-09-03T01:08:19;9.40;99.90
14277;DHT22;7222;57.346;12.150;2022-09-03T01:10:54;9.30;99.90
14277;DHT22;7222;57.346;12.150;2022-09-03T01:13:28;9.20;99.90
14277;DHT22;7222;57.346;12.150;2022-09-03T01:16:06;9.20;99.90
14277;DHT22;7222;57.346;12.150;2022-09-03T01:18:40;9.30;99.90
14277;DHT22;7222;57.346;12.150;2022-09-03T01:21:37;9.20;99.90
14277;DHT22;7222;57.346;12.150;2022-09-03T01:24:25;9.10;99.90
14277;DHT22;7222;57.346;12.150;2022-09-03T01:27:13;9.30;99.90
14277;DHT22;7222;57.346;12.150;2022-09-03T01:29:49;9.20;99.90
14277;DHT22;7222;57.346;12.150;2022-09-03T01:32:23;9.10;99.90
14277;DHT22;7222;57.346;12.150;2022-09-03T01:35:01;9.00;99.90
14277;DHT22;7222;57.346;12.150;2022-09-03T01:37:35;9.10;99.90
14277;DHT22;7222;57.346;12.150;2022-09-03T01:40:14;9.20;99.90
14277;DHT22;7222;57.346;12.150;2022-09-03T01:42:52;9.20;99.90
14277;DHT22;7222;57.346;12.150;2022-09-03T01:45:38;9.10;99.90
14277;DHT22;7222;57.346;12.150;2022-09-03T01:51:10;9.20;99.90
14277;DHT22;7222;57.346;12.150;2022-09-03T01:53:56;8.90;99.90
14277;DHT22;7222;57.346;12.150;2022-09-03T01:56:39;9.10;99.90
14277;DHT22;7222;57.346;12.150;2022-09-03T01:59:14;9.00;99.90
14277;DHT22;7222;57.346;12.150;2022-09-03T02:01:49;9.20;99.90
14277;DHT22;7222;57.346;12.150;2022-09-03T02:04:20;9.00;99.90
14277;DHT22;7222;57.346;12.150;2022-09-03T02:06:48;9.00;99.90
14277;DHT22;7222;57.346;12.150;2022-09-03T02:09:15;9.00;99.90
14277;DHT22;7222;57.346;12.150;2022-09-03T02:11:43;8.90;99.90
14277;DHT22;7222;57.346;12.150;2022-09-03T02:14:12;8.80;99.90
14277;DHT22;7222;57.346;12.150;2022-09-03T02:16:39;8.80;99.90
14277;DHT22;7222;57.346;12.150;2022-09-03T02:19:11;8.80;99.90
14277;DHT22;7222;57.346;12.150;2022-09-03T02:21:41;8.70;99.90
14277;DHT22;7222;57.346;12.150;2022-09-03T02:24:10;8.70;99.90
14277;DHT22;7222;57.346;12.150;2022-09-03T02:26:37;8.70;99.90
14277;DHT22;7222;57.346;12.150;2022-09-03T02:29:04;8.80;99.90
14277;DHT22;7222;57.346;12.150;2022-09-03T02:31:31;8.80;99.90
14277;DHT22;7222;57.346;12.150;2022-09-03T02:33:58;8.80;99.90
14277;DHT22;7222;57.346;12.150;2022-09-03T02:36:30;8.80;99.90
14277;DHT22;7222;57.346;12.150;2022-09-03T02:38:58;8.80;99.90
14277;DHT22;7222;57.346;12.150;2022-09-03T02:41:25;8.80;99.90
14277;DHT22;7222;57.346;12.150;2022-09-03T02:43:57;8.70;99.90
14277;DHT22;7222;57.346;12.150;2022-09-03T02:46:32;8.90;99.90
14277;DHT22;7222;57.346;12.150;2022-09-03T02:49:01;8.70;99.90
14277;DHT22;7222;57.346;12.150;2022-09-03T02:51:34;8.60;99.90
14277;DHT22;7222;57.346;12.150;2022-09-03T02:54:01;8.70;99.90
14277;DHT22;7222;57.346;12.150;2022-09-03T02:56:28;8.60;99.90
14277;DHT22;7222;57.346;12.150;2022-09-03T02:58:55;8.50;99.90
14277;DHT22;7222;57.346;12.150;2022-09-03T03:01:22;8.40;99.90
14277;DHT22;7222;57.346;12.150;2022-09-03T03:03:49;8.30;99.90
14277;DHT22;7222;57.346;12.150;2022-09-03T03:06:17;8.60;99.90
14277;DHT22;7222;57.346;12.150;2022-09-03T03:08:47;8.60;99.90
14277;DHT22;7222;57.346;12.150;2022-09-03T03:11:15;8.60;99.90
14277;DHT22;7222;57.346;12.150;2022-09-03T03:13:43;8.70;99.90
14277;DHT22;7222;57.346;12.150;2022-09-03T03:16:15;8.60;99.90
14277;DHT22;7222;57.346;12.150;2022-09-03T03:18:43;8.60;99.90
14277;DHT22;7222;57.346;12.150;2022-09-03T03:21:12;8.60;99.90
14277;DHT22;7222;57.346;12.150;2022-09-03T03:23:39;8.50;99.90
14277;DHT22;7222;57.346;12.150;2022-09-03T03:26:10;8.50;99.90
14277;DHT22;7222;57.346;12.150;2022-09-03T03:28:37;8.50;99.90
14277;DHT22;7222;57.346;12.150;2022-09-03T03:31:07;8.30;99.90
14277;DHT22;7222;57.346;12.150;2022-09-03T03:33:36;8.30;99.90
14277;DHT22;7222;57.346;12.150;2022-09-03T03:36:04;8.50;99.90
14277;DHT22;7222;57.346;12.150;2022-09-03T03:38:32;8.50;99.90
14277;DHT22;7222;57.346;12.150;2022-09-03T03:41:05;8.30;99.90
14277;DHT22;7222;57.346;12.150;2022-09-03T03:43:33;8.30;99.90
14277;DHT22;7222;57.346;12.150;2022-09-03T03:46:00;8.30;99.90
14277;DHT22;7222;57.346;12.150;2022-09-03T03:48:27;8.20;99.90
14277;DHT22;7222;57.346;12.150;2022-09-03T03:50:54;8.40;99.90
14277;DHT22;7222;57.346;12.150;2022-09-03T03:53:21;8.40;99.90
14277;DHT22;7222;57.346;12.150;2022-09-03T03:55:54;8.30;99.90
14277;DHT22;7222;57.346;12.150;2022-09-03T03:58:21;8.20;99.90
14277;DHT22;7222;57.346;12.150;2022-09-03T04:00:50;8.30;99.90
14277;DHT22;7222;57.346;12.150;2022-09-03T04:03:17;8.30;99.90
14277;DHT22;7222;57.346;12.150;2022-09-03T04:05:53;8.20;99.90
14277;DHT22;7222;57.346;12.150;2022-09-03T04:08:21;8.40;99.90
14277;DHT22;7222;57.346;12.150;2022-09-03T04:10:48;8.30;99.90
14277;DHT22;7222;57.346;12.150;2022-09-03T04:13:15;8.50;99.90
14277;DHT22;7222;57.346;12.150;2022-09-03T04:15:42;8.30;99.90
14277;DHT22;7222;57.346;12.150;2022-09-03T04:18:11;8.30;99.90
14277;DHT22;7222;57.346;12.150;2022-09-03T04:20:38;8.20;99.90
14277;DHT22;7222;57.346;12.150;2022-09-03T04:23:05;8.30;99.90
14277;DHT22;7222;57.346;12.150;2022-09-03T04:25:32;8.30;99.90
14277;DHT22;7222;57.346;12.150;2022-09-03T04:27:59;8.30;99.90
14277;DHT22;7222;57.346;12.150;2022-09-03T04:30:29;8.20;99.90
14277;DHT22;7222;57.346;12.150;2022-09-03T04:32:56;8.10;99.90
14277;DHT22;7222;57.346;12.150;2022-09-03T04:35:26;8.10;99.90
14277;DHT22;7222;57.346;12.150;2022-09-03T04:37:57;8.40;99.90
14277;DHT22;7222;57.346;12.150;2022-09-03T04:40:24;8.10;99.90
14277;DHT22;7222;57.346;12.150;2022-09-03T04:42:56;8.30;99.90
14277;DHT22;7222;57.346;12.150;2022-09-03T04:45:23;8.20;99.90
14277;DHT22;7222;57.346;12.150;2022-09-03T04:47:57;8.20;99.90
14277;DHT22;7222;57.346;12.150;2022-09-03T04:50:26;8.30;99.90
14277;DHT22;7222;57.346;12.150;2022-09-03T04:52:54;8.50;99.90
14277;DHT22;7222;57.346;12.150;2022-09-03T04:55:25;8.40;99.90
14277;DHT22;7222;57.346;12.150;2022-09-03T04:57:52;8.20;99.90
14277;DHT22;7222;57.346;12.150;2022-09-03T05:00:19;8.20;99.90
14277;DHT22;7222;57.346;12.150;2022-09-03T05:02:46;8.30;99.90
14277;DHT22;7222;57.346;12.150;2022-09-03T05:05:14;8.30;99.90
14277;DHT22;7222;57.346;12.150;2022-09-03T05:07:42;8.40;99.90
14277;DHT22;7222;57.346;12.150;2022-09-03T05:10:11;8.60;99.90
14277;DHT22;7222;57.346;12.150;2022-09-03T05:12:40;8.50;99.90
14277;DHT22;7222;57.346;12.150;2022-09-03T05:15:08;8.60;99.90
14277;DHT22;7222;57.346;12.150;2022-09-03T05:17:35;8.60;99.90
14277;DHT22;7222;57.346;12.150;2022-09-03T05:20:03;8.50;99.90
14277;DHT22;7222;57.346;12.150;2022-09-03T05:22:30;8.70;99.90
14277;DHT22;7222;57.346;12.150;2022-09-03T05:24:59;8.70;99.90
14277;DHT22;7222;57.346;12.150;2022-09-03T05:27:26;8.60;99.90
14277;DHT22;7222;57.346;12.150;2022-09-03T05:29:53;8.90;99.90
14277;DHT22;7222;57.346;12.150;2022-09-03T05:32:19;8.90;99.90
14277;DHT22;7222;57.346;12.150;2022-09-03T05:34:46;9.20;99.90
14277;DHT22;7222;57.346;12.150;2022-09-03T05:37:13;9.10;99.90
14277;DHT22;7222;57.346;12.150;2022-09-03T05:39:40;9.20;99.90
14277;DHT22;7222;57.346;12.150;2022-09-03T05:42:09;9.10;99.90
14277;DHT22;7222;57.346;12.150;2022-09-03T05:44:38;9.10;99.90
14277;DHT22;7222;57.346;12.150;2022-09-03T05:47:05;9.20;99.90
14277;DHT22;7222;57.346;12.150;2022-09-03T05:49:31;9.20;99.90
14277;DHT22;7222;57.346;12.150;2022-09-03T05:51:58;9.40;99.90
14277;DHT22;7222;57.346;12.150;2022-09-03T05:54:25;9.60;99.90
14277;DHT22;7222;57.346;12.150;2022-09-03T05:56:52;9.50;99.90
14277;DHT22;7222;57.346;12.150;2022-09-03T05:59:21;9.70;99.90
14277;DHT22;7222;57.346;12.150;2022-09-03T06:01:47;9.80;99.90
14277;DHT22;7222;57.346;12.150;2022-09-03T06:04:15;9.80;99.90
14277;DHT22;7222;57.346;12.150;2022-09-03T06:06:44;9.90;99.90
14277;DHT22;7222;57.346;12.150;2022-09-03T06:09:13;9.90;99.90
14277;DHT22;7222;57.346;12.150;2022-09-03T06:11:41;10.00;99.90
14277;DHT22;7222;57.346;12.150;2022-09-03T06:14:09;10.20;99.90
14277;DHT22;7222;57.346;12.150;2022-09-03T06:16:39;10.30;99.90
14277;DHT22;7222;57.346;12.150;2022-09-03T06:19:07;10.30;99.90
14277;DHT22;7222;57.346;12.150;2022-09-03T06:21:35;10.60;99.90
14277;DHT22;7222;57.346;12.150;2022-09-03T06:24:05;10.80;99.90
14277;DHT22;7222;57.346;12.150;2022-09-03T06:26:32;11.00;99.90
14277;DHT22;7222;57.346;12.150;2022-09-03T06:28:59;11.00;99.90
14277;DHT22;7222;57.346;12.150;2022-09-03T06:31:26;11.20;99.90
14277;DHT22;7222;57.346;12.150;2022-09-03T06:33:54;11.20;99.90
14277;DHT22;7222;57.346;12.150;2022-09-03T06:36:23;11.30;99.90
14277;DHT22;7222;57.346;12.150;2022-09-03T06:38:52;11.50;99.90
14277;DHT22;7222;57.346;12.150;2022-09-03T06:41:21;11.70;99.90
14277;DHT22;7222;57.346;12.150;2022-09-03T06:43:51;11.70;99.90
14277;DHT22;7222;57.346;12.150;2022-09-03T06:46:20;11.80;99.90
14277;DHT22;7222;57.346;12.150;2022-09-03T06:48:48;11.80;99.90
14277;DHT22;7222;57.346;12.150;2022-09-03T06:51:18;12.20;99.90
14277;DHT22;7222;57.346;12.150;2022-09-03T06:53:46;12.40;99.90
14277;DHT22;7222;57.346;12.150;2022-09-03T06:56:15;12.50;99.90
14277;DHT22;7222;57.346;12.150;2022-09-03T06:58:43;12.60;99.90
14277;DHT22;7222;57.346;12.150;2022-09-03T07:01:12;12.60;99.90
14277;DHT22;7222;57.346;12.150;2022-09-03T07:03:41;12.70;99.90
14277;DHT22;7222;57.346;12.150;2022-09-03T07:06:10;12.80;99.90
14277;DHT22;7222;57.346;12.150;2022-09-03T07:08:39;12.90;99.90
14277;DHT22;7222;57.346;12.150;2022-09-03T07:11:08;13.00;99.90
14277;DHT22;7222;57.346;12.150;2022-09-03T07:13:36;13.10;99.90
14277;DHT22;7222;57.346;12.150;2022-09-03T07:16:06;13.20;99.90
14277;DHT22;7222;57.346;12.150;2022-09-03T07:18:34;13.30;99.90
14277;DHT22;7222;57.346;12.150;2022-09-03T07:21:03;13.40;99.90
14277;DHT22;7222;57.346;12.150;2022-09-03T07:23:30;13.40;99.90
14277;DHT22;7222;57.346;12.150;2022-09-03T07:26:00;13.40;99.90
14277;DHT22;7222;57.346;12.150;2022-09-03T07:28:28;13.60;99.90
14277;DHT22;7222;57.346;12.150;2022-09-03T07:31:04;13.70;99.90
14277;DHT22;7222;57.346;12.150;2022-09-03T07:33:32;13.90;99.90
14277;DHT22;7222;57.346;12.150;2022-09-03T07:36:03;14.10;99.90
14277;DHT22;7222;57.346;12.150;2022-09-03T07:38:31;14.20;99.90
14277;DHT22;7222;57.346;12.150;2022-09-03T07:41:01;14.40;99.90
14277;DHT22;7222;57.346;12.150;2022-09-03T07:43:29;14.50;99.90
14277;DHT22;7222;57.346;12.150;2022-09-03T07:45:59;14.60;99.90
14277;DHT22;7222;57.346;12.150;2022-09-03T07:48:26;14.70;99.90
14277;DHT22;7222;57.346;12.150;2022-09-03T07:50:57;15.00;99.90
14277;DHT22;7222;57.346;12.150;2022-09-03T07:53:26;15.20;99.90
14277;DHT22;7222;57.346;12.150;2022-09-03T07:55:53;15.30;99.90
14277;DHT22;7222;57.346;12.150;2022-09-03T07:58:23;15.40;99.90
14277;DHT22;7222;57.346;12.150;2022-09-03T08:00:50;15.60;99.90
14277;DHT22;7222;57.346;12.150;2022-09-03T08:03:16;15.80;99.90
14277;DHT22;7222;57.346;12.150;2022-09-03T08:05:44;15.80;99.90
14277;DHT22;7222;57.346;12.150;2022-09-03T08:08:11;16.00;99.90
14277;DHT22;7222;57.346;12.150;2022-09-03T08:10:40;16.20;99.90
14277;DHT22;7222;57.346;12.150;2022-09-03T08:13:07;16.50;99.90
14277;DHT22;7222;57.346;12.150;2022-09-03T08:15:36;16.50;99.90
14277;DHT22;7222;57.346;12.150;2022-09-03T08:18:07;16.80;99.90
14277;DHT22;7222;57.346;12.150;2022-09-03T08:20:35;17.00;99.90
14277;DHT22;7222;57.346;12.150;2022-09-03T08:23:04;17.20;99.90
14277;DHT22;7222;57.346;12.150;2022-09-03T08:25:31;17.40;99.90
14277;DHT22;7222;57.346;12.150;2022-09-03T08:27:58;17.40;99.90
14277;DHT22;7222;57.346;12.150;2022-09-03T08:30:26;17.50;99.90
14277;DHT22;7222;57.346;12.150;2022-09-03T08:32:55;17.70;99.90
14277;DHT22;7222;57.346;12.150;2022-09-03T08:35:22;17.90;99.90
14277;DHT22;7222;57.346;12.150;2022-09-03T08:37:49;18.10;99.90
14277;DHT22;7222;57.346;12.150;2022-09-03T08:40:19;18.20;99.90
14277;DHT22;7222;57.346;12.150;2022-09-03T08:43:01;18.40;99.90
14277;DHT22;7222;57.346;12.150;2022-09-03T08:45:33;18.60;99.90
14277;DHT22;7222;57.346;12.150;2022-09-03T08:48:05;18.80;99.90
14277;DHT22;7222;57.346;12.150;2022-09-03T08:50:37;19.00;99.90
14277;DHT22;7222;57.346;12.150;2022-09-03T08:53:11;19.20;99.90
14277;DHT22;7222;57.346;12.150;2022-09-03T08:55:46;19.50;99.90
14277;DHT22;7222;57.346;12.150;2022-09-03T08:58:17;19.70;99.90
14277;DHT22;7222;57.346;12.150;2022-09-03T09:00:51;19.70;99.90
14277;DHT22;7222;57.346;12.150;2022-09-03T09:03:36;19.30;99.90
14277;DHT22;7222;57.346;12.150;2022-09-03T09:06:16;19.30;99.90
14277;DHT22;7222;57.346;12.150;2022-09-03T09:08:54;19.90;99.90
14277;DHT22;7222;57.346;12.150;2022-09-03T09:11:32;19.70;99.90
14277;DHT22;7222;57.346;12.150;2022-09-03T09:14:04;19.80;99.90
14277;DHT22;7222;57.346;12.150;2022-09-03T09:16:39;19.90;99.90
14277;DHT22;7222;57.346;12.150;2022-09-03T09:19:19;19.10;99.90
14277;DHT22;7222;57.346;12.150;2022-09-03T09:21:52;19.20;99.90
14277;DHT22;7222;57.346;12.150;2022-09-03T09:24:22;20.80;99.90
14277;DHT22;7222;57.346;12.150;2022-09-03T09:26:54;21.50;99.90
14277;DHT22;7222;57.346;12.150;2022-09-03T09:29:24;21.20;99.90
14277;DHT22;7222;57.346;12.150;2022-09-03T09:31:53;21.70;99.90
14277;DHT22;7222;57.346;12.150;2022-09-03T09:34:21;20.00;99.90
14277;DHT22;7222;57.346;12.150;2022-09-03T09:36:50;20.10;99.90
14277;DHT22;7222;57.346;12.150;2022-09-03T09:39:18;20.90;99.90
14277;DHT22;7222;57.346;12.150;2022-09-03T09:41:56;21.70;99.90
14277;DHT22;7222;57.346;12.150;2022-09-03T09:44:25;21.20;99.90
14277;DHT22;7222;57.346;12.150;2022-09-03T09:47:02;21.80;99.90
14277;DHT22;7222;57.346;12.150;2022-09-03T09:49:34;21.50;99.90
14277;DHT22;7222;57.346;12.150;2022-09-03T09:52:06;21.80;99.90
14277;DHT22;7222;57.346;12.150;2022-09-03T09:54:34;21.80;99.90
14277;DHT22;7222;57.346;12.150;2022-09-03T09:57:03;21.10;99.90
14277;DHT22;7222;57.346;12.150;2022-09-03T09:59:32;20.70;99.90
14277;DHT22;7222;57.346;12.150;2022-09-03T10:02:18;21.40;99.90
14277;DHT22;7222;57.346;12.150;2022-09-03T10:04:48;20.60;1.00
14277;DHT22;7222;57.346;12.150;2022-09-03T10:07:23;19.90;99.90
14277;DHT22;7222;57.346;12.150;2022-09-03T10:10:01;19.80;1.00
14277;DHT22;7222;57.346;12.150;2022-09-03T10:12:31;21.60;99.00
14277;DHT22;7222;57.346;12.150;2022-09-03T10:15:10;23.40;99.90
14277;DHT22;7222;57.346;12.150;2022-09-03T10:17:47;22.90;1.00
14277;DHT22;7222;57.346;12.150;2022-09-03T10:20:21;21.30;1.00
14277;DHT22;7222;57.346;12.150;2022-09-03T10:22:59;20.20;99.90
14277;DHT22;7222;57.346;12.150;2022-09-03T10:25:33;20.10;1.00
14277;DHT22;7222;57.346;12.150;2022-09-03T10:28:04;21.00;1.00
14277;DHT22;7222;57.346;12.150;2022-09-03T10:30:40;21.10;1.00
14277;DHT22;7222;57.346;12.150;2022-09-03T10:33:15;21.90;1.00
14277;DHT22;7222;57.346;12.150;2022-09-03T10:35:51;20.60;99.90
14277;DHT22;7222;57.346;12.150;2022-09-03T10:38:26;19.70;1.00
14277;DHT22;7222;57.346;12.150;2022-09-03T10:41:02;19.60;99.90
14277;DHT22;7222;57.346;12.150;2022-09-03T10:43:48;19.80;99.90
14277;DHT22;7222;57.346;12.150;2022-09-03T10:46:25;20.50;1.00
14277;DHT22;7222;57.346;12.150;2022-09-03T10:49:14;20.60;99.90
14277;DHT22;7222;57.346;12.150;2022-09-03T10:51:53;20.30;1.00
14277;DHT22;7222;57.346;12.150;2022-09-03T10:54:35;21.10;1.00
14277;DHT22;7222;57.346;12.150;2022-09-03T10:57:10;20.40;99.90
14277;DHT22;7222;57.346;12.150;2022-09-03T10:59:53;20.20;1.00
14277;DHT22;7222;57.346;12.150;2022-09-03T11:02:45;19.10;99.90
14277;DHT22;7222;57.346;12.150;2022-09-03T11:05:22;20.60;1.00
14277;DHT22;7222;57.346;12.150;2022-09-03T11:07:55;21.00;1.00
14277;DHT22;7222;57.346;12.150;2022-09-03T11:10:26;19.90;99.90
14277;DHT22;7222;57.346;12.150;2022-09-03T11:13:01;19.30;99.90
14277;DHT22;7222;57.346;12.150;2022-09-03T11:15:33;19.60;1.00
14277;DHT22;7222;57.346;12.150;2022-09-03T11:18:09;20.90;41.20
14277;DHT22;7222;57.346;12.150;2022-09-03T11:20:39;22.40;99.90
14277;DHT22;7222;57.346;12.150;2022-09-03T11:23:10;21.10;1.00
14277;DHT22;7222;57.346;12.150;2022-09-03T11:25:42;21.10;1.00
14277;DHT22;7222;57.346;12.150;2022-09-03T11:28:19;20.70;99.90
14277;DHT22;7222;57.346;12.150;2022-09-03T11:31:05;22.90;1.00
14277;DHT22;7222;57.346;12.150;2022-09-03T11:33:40;22.70;99.90
14277;DHT22;7222;57.346;12.150;2022-09-03T11:36:10;21.30;99.90
14277;DHT22;7222;57.346;12.150;2022-09-03T11:38:39;20.20;99.90
14277;DHT22;7222;57.346;12.150;2022-09-03T11:41:12;19.60;99.90
14277;DHT22;7222;57.346;12.150;2022-09-03T11:43:41;20.40;49.80
14277;DHT22;7222;57.346;12.150;2022-09-03T11:46:10;21.10;99.90
14277;DHT22;7222;57.346;12.150;2022-09-03T11:48:41;20.80;1.00
14277;DHT22;7222;57.346;12.150;2022-09-03T11:51:28;20.10;1.00
14277;DHT22;7222;57.346;12.150;2022-09-03T11:53:59;19.40;99.90
14277;DHT22;7222;57.346;12.150;2022-09-03T11:56:27;19.70;99.90
14277;DHT22;7222;57.346;12.150;2022-09-03T11:59:01;20.50;1.00
14277;DHT22;7222;57.346;12.150;2022-09-03T12:01:30;21.10;1.00
14277;DHT22;7222;57.346;12.150;2022-09-03T12:03:59;21.10;1.00
14277;DHT22;7222;57.346;12.150;2022-09-03T12:06:54;22.80;99.90
14277;DHT22;7222;57.346;12.150;2022-09-03T12:09:55;23.90;1.00
14277;DHT22;7222;57.346;12.150;2022-09-03T12:12:44;23.40;1.00
14277;DHT22;7222;57.346;12.150;2022-09-03T12:15:26;21.40;99.90
14277;DHT22;7222;57.346;12.150;2022-09-03T12:18:02;20.80;1.00
14277;DHT22;7222;57.346;12.150;2022-09-03T12:20:46;20.50;99.90
14277;DHT22;7222;57.346;12.150;2022-09-03T12:23:26;20.90;1.00
14277;DHT22;7222;57.346;12.150;2022-09-03T12:25:55;20.60;85.20
14277;DHT22;7222;57.346;12.150;2022-09-03T12:28:24;21.10;1.00
14277;DHT22;7222;57.346;12.150;2022-09-03T12:30:52;21.80;1.00
14277;DHT22;7222;57.346;12.150;2022-09-03T12:33:20;22.40;99.90
14277;DHT22;7222;57.346;12.150;2022-09-03T12:35:57;22.50;1.00
14277;DHT22;7222;57.346;12.150;2022-09-03T12:38:25;23.40;20.10
14277;DHT22;7222;57.346;12.150;2022-09-03T12:40:55;24.50;1.00
14277;DHT22;7222;57.346;12.150;2022-09-03T12:43:27;25.20;18.00
14277;DHT22;7222;57.346;12.150;2022-09-03T12:45:54;25.70;1.00
14277;DHT22;7222;57.346;12.150;2022-09-03T12:48:21;26.10;99.90
14277;DHT22;7222;57.346;12.150;2022-09-03T12:51:00;26.10;99.90
14277;DHT22;7222;57.346;12.150;2022-09-03T12:53:28;24.70;99.90
14277;DHT22;7222;57.346;12.150;2022-09-03T12:56:00;25.50;99.90
14277;DHT22;7222;57.346;12.150;2022-09-03T12:58:32;25.70;93.80
14277;DHT22;7222;57.346;12.150;2022-09-03T13:01:07;25.00;99.90
14277;DHT22;7222;57.346;12.150;2022-09-03T13:03:43;24.30;99.90
14277;DHT22;7222;57.346;12.150;2022-09-03T13:06:14;24.90;99.90
14277;DHT22;7222;57.346;12.150;2022-09-03T13:08:46;24.10;99.90
14277;DHT22;7222;57.346;12.150;2022-09-03T13:11:19;22.80;99.90
14277;DHT22;7222;57.346;12.150;2022-09-03T13:13:53;22.80;99.90
14277;DHT22;7222;57.346;12.150;2022-09-03T13:19:42;24.20;1.00
14277;DHT22;7222;57.346;12.150;2022-09-03T13:22:18;24.90;99.90
14277;DHT22;7222;57.346;12.150;2022-09-03T13:24:59;23.90;99.90
14277;DHT22;7222;57.346;12.150;2022-09-03T13:27:32;23.10;1.00
14277;DHT22;7222;57.346;12.150;2022-09-03T13:30:07;24.70;1.00
14277;DHT22;7222;57.346;12.150;2022-09-03T13:32:45;24.80;99.90
14277;DHT22;7222;57.346;12.150;2022-09-03T13:35:22;25.30;1.00
14277;DHT22;7222;57.346;12.150;2022-09-03T13:37:54;25.20;1.00
14277;DHT22;7222;57.346;12.150;2022-09-03T13:40:25;23.30;99.90
14277;DHT22;7222;57.346;12.150;2022-09-03T13:43:03;21.80;1.00
14277;DHT22;7222;57.346;12.150;2022-09-03T13:45:37;21.70;99.90
14277;DHT22;7222;57.346;12.150;2022-09-03T13:48:09;23.50;1.00
14277;DHT22;7222;57.346;12.150;2022-09-03T13:51:00;24.70;99.90
14277;DHT22;7222;57.346;12.150;2022-09-03T13:53:39;24.90;69.00
14277;DHT22;7222;57.346;12.150;2022-09-03T13:56:18;25.20;1.00
14277;DHT22;7222;57.346;12.150;2022-09-03T13:58:52;25.40;1.00
14277;DHT22;7222;57.346;12.150;2022-09-03T14:01:25;25.30;1.00
14277;DHT22;7222;57.346;12.150;2022-09-03T14:03:56;25.30;1.00
14277;DHT22;7222;57.346;12.150;2022-09-03T14:06:36;25.40;1.00
14277;DHT22;7222;57.346;12.150;2022-09-03T14:09:11;25.50;1.00
14277;DHT22;7222;57.346;12.150;2022-09-03T14:11:48;25.10;99.90
14277;DHT22;7222;57.346;12.150;2022-09-03T14:14:31;25.30;1.00
14277;DHT22;7222;57.346;12.150;2022-09-03T14:17:09;24.00;99.90
14277;DHT22;7222;57.346;12.150;2022-09-03T14:19:44;22.20;99.90
14277;DHT22;7222;57.346;12.150;2022-09-03T14:22:15;21.50;1.00
14277;DHT22;7222;57.346;12.150;2022-09-03T14:24:48;22.40;1.00
14277;DHT22;7222;57.346;12.150;2022-09-03T14:27:23;22.40;1.00
14277;DHT22;7222;57.346;12.150;2022-09-03T14:29:57;21.30;99.90
14277;DHT22;7222;57.346;12.150;2022-09-03T14:32:31;20.20;1.00
14277;DHT22;7222;57.346;12.150;2022-09-03T14:35:17;21.00;1.00
14277;DHT22;7222;57.346;12.150;2022-09-03T14:38:10;21.70;1.20
14277;DHT22;7222;57.346;12.150;2022-09-03T14:40:43;22.00;99.90
14277;DHT22;7222;57.346;12.150;2022-09-03T14:43:29;23.20;90.00
14277;DHT22;7222;57.346;12.150;2022-09-03T14:46:17;23.90;95.60
14277;DHT22;7222;57.346;12.150;2022-09-03T14:49:03;24.10;9.90
14277;DHT22;7222;57.346;12.150;2022-09-03T14:51:46;24.70;1.00
14277;DHT22;7222;57.346;12.150;2022-09-03T14:54:38;25.40;1.00
14277;DHT22;7222;57.346;12.150;2022-09-03T14:57:26;25.60;76.80
14277;DHT22;7222;57.346;12.150;2022-09-03T15:00:03;25.10;99.90
14277;DHT22;7222;57.346;12.150;2022-09-03T15:02:50;25.90;99.90
14277;DHT22;7222;57.346;12.150;2022-09-03T15:05:32;26.40;99.90
14277;DHT22;7222;57.346;12.150;2022-09-03T15:08:08;26.70;78.90
14277;DHT22;7222;57.346;12.150;2022-09-03T15:10:44;26.50;99.90
14277;DHT22;7222;57.346;12.150;2022-09-03T15:13:16;25.90;99.90
14277;DHT22;7222;57.346;12.150;2022-09-03T15:15:58;26.80;99.90
14277;DHT22;7222;57.346;12.150;2022-09-03T15:18:45;26.40;99.90
14277;DHT22;7222;57.346;12.150;2022-09-03T15:21:24;27.10;99.90
14277;DHT22;7222;57.346;12.150;2022-09-03T15:24:03;27.00;1.00
14277;DHT22;7222;57.346;12.150;2022-09-03T15:26:41;27.30;1.00
14277;DHT22;7222;57.346;12.150;2022-09-03T15:29:21;26.90;99.90
14277;DHT22;7222;57.346;12.150;2022-09-03T15:31:56;27.30;1.00
14277;DHT22;7222;57.346;12.150;2022-09-03T15:34:48;27.50;99.90
14277;DHT22;7222;57.346;12.150;2022-09-03T15:37:20;27.90;1.00
14277;DHT22;7222;57.346;12.150;2022-09-03T15:40:00;28.20;99.90
14277;DHT22;7222;57.346;12.150;2022-09-03T15:42:29;28.10;1.00
14277;DHT22;7222;57.346;12.150;2022-09-03T15:45:03;27.70;1.00
14277;DHT22;7222;57.346;12.150;2022-09-03T15:47:36;27.60;99.90
14277;DHT22;7222;57.346;12.150;2022-09-03T15:50:16;27.40;1.00
14277;DHT22;7222;57.346;12.150;2022-09-03T15:52:55;28.00;1.00
14277;DHT22;7222;57.346;12.150;2022-09-03T15:55:31;28.20;1.00
14277;DHT22;7222;57.346;12.150;2022-09-03T15:58:07;28.40;1.00
14277;DHT22;7222;57.346;12.150;2022-09-03T16:00:55;28.00;99.90
14277;DHT22;7222;57.346;12.150;2022-09-03T16:03:37;28.10;1.00
14277;DHT22;7222;57.346;12.150;2022-09-03T16:06:23;27.60;1.00
14277;DHT22;7222;57.346;12.150;2022-09-03T16:08:54;27.50;99.90
14277;DHT22;7222;57.346;12.150;2022-09-03T16:11:33;27.80;99.90
14277;DHT22;7222;57.346;12.150;2022-09-03T16:14:05;28.00;1.00
14277;DHT22;7222;57.346;12.150;2022-09-03T16:16:48;27.80;1.00
14277;DHT22;7222;57.346;12.150;2022-09-03T16:19:20;27.50;99.90
14277;DHT22;7222;57.346;12.150;2022-09-03T16:21:58;27.10;1.00